sensor_id;sensor_type;location;lat;lon;timestamp;P1;durP1;ratioP1;P2;durP2;ratioP2
2658;SDS011;1339;53.304;10.406;2022-07-23T00:01:18;2.43;;;2.20;;
2658;SDS011;1339;53.304;10.406;2022-07-23T00:03:45;2.70;;;2.07;;
2658;SDS011;1339;53.304;10.406;2022-07-23T00:06:13;2.37;;;2.17;;
2658;SDS011;1339;53.304;10.406;2022-07-23T00:08:41;2.10;;;1.90;;
2658;SDS011;1339;53.304;10.406;2022-07-23T00:11:08;2.40;;;2.20;;
2658;SDS011;1339;53.304;10.406;2022-07-23T00:13:35;2.90;;;2.60;;
2658;SDS011;1339;53.304;10.406;2022-07-23T00:16:02;3.10;;;2.23;;
2658;SDS011;1339;53.304;10.406;2022-07-23T00:18:29;4.57;;;2.70;;
2658;SDS011;1339;53.304;10.406;2022-07-23T00:20:57;2.20;;;2.10;;
2658;SDS011;1339;53.304;10.406;2022-07-23T00:23:25;2.93;;;2.30;;
2658;SDS011;1339;53.304;10.406;2022-07-23T00:25:53;4.13;;;2.60;;
2658;SDS011;1339;53.304;10.406;2022-07-23T00:28:21;3.93;;;2.13;;
2658;SDS011;1339;53.304;10.406;2022-07-23T00:30:48;4.40;;;3.77;;
2658;SDS011;1339;53.304;10.406;2022-07-23T00:33:15;2.50;;;2.30;;
2658;SDS011;1339;53.304;10.406;2022-07-23T00:35:42;4.30;;;2.73;;
2658;SDS011;1339;53.304;10.406;2022-07-23T00:38:09;2.47;;;2.27;;
2658;SDS011;1339;53.304;10.406;2022-07-23T00:40:38;5.70;;;3.00;;
2658;SDS011;1339;53.304;10.406;2022-07-23T00:43:06;3.90;;;2.53;;
2658;SDS011;1339;53.304;10.406;2022-07-23T00:45:33;2.60;;;2.40;;
2658;SDS011;1339;53.304;10.406;2022-07-23T00:48:00;4.20;;;1.93;;
2658;SDS011;1339;53.304;10.406;2022-07-23T00:50:28;4.03;;;1.97;;
2658;SDS011;1339;53.304;10.406;2022-07-23T00:52:55;2.80;;;2.50;;
2658;SDS011;1339;53.304;10.406;2022-07-23T00:55:22;3.47;;;2.63;;
2658;SDS011;1339;53.304;10.406;2022-07-23T00:57:51;4.03;;;2.37;;
2658;SDS011;1339;53.304;10.406;2022-07-23T01:00:20;2.43;;;2.23;;
2658;SDS011;1339;53.304;10.406;2022-07-23T01:02:47;3.20;;;2.40;;
2658;SDS011;1339;53.304;10.406;2022-07-23T01:05:14;3.23;;;2.00;;
2658;SDS011;1339;53.304;10.406;2022-07-23T01:07:42;2.50;;;2.30;;
2658;SDS011;1339;53.304;10.406;2022-07-23T01:10:10;2.60;;;2.30;;
2658;SDS011;1339;53.304;10.406;2022-07-23T01:12:52;2.20;;;1.97;;
2658;SDS011;1339;53.304;10.406;2022-07-23T01:15:20;3.33;;;2.40;;
2658;SDS011;1339;53.304;10.406;2022-07-23T01:17:47;3.73;;;2.83;;
2658;SDS011;1339;53.304;10.406;2022-07-23T01:20:14;3.23;;;2.57;;
2658;SDS011;1339;53.304;10.406;2022-07-23T01:22:42;1.80;;;1.70;;
2658;SDS011;1339;53.304;10.406;2022-07-23T01:25:10;4.40;;;2.60;;
2658;SDS011;1339;53.304;10.406;2022-07-23T01:27:37;1.97;;;1.80;;
2658;SDS011;1339;53.304;10.406;2022-07-23T01:30:04;3.10;;;2.40;;
2658;SDS011;1339;53.304;10.406;2022-07-23T01:32:32;3.90;;;2.70;;
2658;SDS011;1339;53.304;10.406;2022-07-23T01:34:59;5.20;;;2.80;;
2658;SDS011;1339;53.304;10.406;2022-07-23T01:37:26;2.90;;;2.60;;
2658;SDS011;1339;53.304;10.406;2022-07-23T01:39:55;2.27;;;2.07;;
2658;SDS011;1339;53.304;10.406;2022-07-23T01:42:22;2.20;;;2.00;;
2658;SDS011;1339;53.304;10.406;2022-07-23T01:44:49;3.60;;;2.50;;
2658;SDS011;1339;53.304;10.406;2022-07-23T01:47:16;2.70;;;2.50;;
2658;SDS011;1339;53.304;10.406;2022-07-23T01:49:43;4.73;;;1.97;;
2658;SDS011;1339;53.304;10.406;2022-07-23T01:52:10;2.17;;;1.97;;
2658;SDS011;1339;53.304;10.406;2022-07-23T01:54:38;2.53;;;2.33;;
2658;SDS011;1339;53.304;10.406;2022-07-23T01:57:07;2.50;;;2.30;;
2658;SDS011;1339;53.304;10.406;2022-07-23T01:59:34;3.03;;;2.30;;
2658;SDS011;1339;53.304;10.406;2022-07-23T02:02:02;4.00;;;1.83;;
2658;SDS011;1339;53.304;10.406;2022-07-23T02:04:30;4.33;;;2.20;;
2658;SDS011;1339;53.304;10.406;2022-07-23T02:07:00;2.43;;;2.23;;
2658;SDS011;1339;53.304;10.406;2022-07-23T02:09:28;2.43;;;1.80;;
2658;SDS011;1339;53.304;10.406;2022-07-23T02:11:56;3.93;;;2.03;;
2658;SDS011;1339;53.304;10.406;2022-07-23T02:14:25;2.80;;;1.83;;
2658;SDS011;1339;53.304;10.406;2022-07-23T02:16:52;2.83;;;2.30;;
2658;SDS011;1339;53.304;10.406;2022-07-23T02:19:19;4.23;;;4.00;;
2658;SDS011;1339;53.304;10.406;2022-07-23T02:21:46;3.87;;;2.23;;
2658;SDS011;1339;53.304;10.406;2022-07-23T02:24:13;3.00;;;1.90;;
2658;SDS011;1339;53.304;10.406;2022-07-23T02:26:40;2.30;;;2.07;;
2658;SDS011;1339;53.304;10.406;2022-07-23T02:29:07;3.73;;;1.97;;
2658;SDS011;1339;53.304;10.406;2022-07-23T02:31:36;1.90;;;1.80;;
2658;SDS011;1339;53.304;10.406;2022-07-23T02:34:03;4.93;;;2.30;;
2658;SDS011;1339;53.304;10.406;2022-07-23T02:36:30;4.80;;;2.40;;
2658;SDS011;1339;53.304;10.406;2022-07-23T02:38:57;3.20;;;2.17;;
2658;SDS011;1339;53.304;10.406;2022-07-23T02:41:24;4.37;;;2.80;;
2658;SDS011;1339;53.304;10.406;2022-07-23T02:43:51;4.50;;;2.27;;
2658;SDS011;1339;53.304;10.406;2022-07-23T02:46:18;2.73;;;2.50;;
2658;SDS011;1339;53.304;10.406;2022-07-23T02:48:47;2.87;;;2.57;;
2658;SDS011;1339;53.304;10.406;2022-07-23T02:51:14;3.20;;;2.50;;
2658;SDS011;1339;53.304;10.406;2022-07-23T02:53:41;2.30;;;2.10;;
2658;SDS011;1339;53.304;10.406;2022-07-23T02:56:08;4.63;;;2.60;;
2658;SDS011;1339;53.304;10.406;2022-07-23T02:58:35;4.30;;;2.60;;
2658;SDS011;1339;53.304;10.406;2022-07-23T03:01:03;2.50;;;2.30;;
2658;SDS011;1339;53.304;10.406;2022-07-23T03:03:30;4.63;;;2.50;;
2658;SDS011;1339;53.304;10.406;2022-07-23T03:05:59;2.60;;;2.40;;
2658;SDS011;1339;53.304;10.406;2022-07-23T03:08:26;2.93;;;2.60;;
2658;SDS011;1339;53.304;10.406;2022-07-23T03:10:53;2.70;;;2.50;;
2658;SDS011;1339;53.304;10.406;2022-07-23T03:13:20;3.40;;;2.87;;
2658;SDS011;1339;53.304;10.406;2022-07-23T03:15:47;3.83;;;2.37;;
2658;SDS011;1339;53.304;10.406;2022-07-23T03:18:14;3.43;;;2.70;;
2658;SDS011;1339;53.304;10.406;2022-07-23T03:20:42;6.10;;;2.93;;
2658;SDS011;1339;53.304;10.406;2022-07-23T03:23:10;2.80;;;2.57;;
2658;SDS011;1339;53.304;10.406;2022-07-23T03:25:37;2.87;;;2.40;;
2658;SDS011;1339;53.304;10.406;2022-07-23T03:28:04;2.70;;;2.50;;
2658;SDS011;1339;53.304;10.406;2022-07-23T03:30:31;2.40;;;2.20;;
2658;SDS011;1339;53.304;10.406;2022-07-23T03:32:58;3.80;;;2.50;;
2658;SDS011;1339;53.304;10.406;2022-07-23T03:35:25;2.47;;;2.30;;
2658;SDS011;1339;53.304;10.406;2022-07-23T03:37:53;4.03;;;2.73;;
2658;SDS011;1339;53.304;10.406;2022-07-23T03:40:21;3.00;;;2.80;;
2658;SDS011;1339;53.304;10.406;2022-07-23T03:42:48;3.40;;;2.93;;
2658;SDS011;1339;53.304;10.406;2022-07-23T03:45:15;2.60;;;2.40;;
2658;SDS011;1339;53.304;10.406;2022-07-23T03:47:42;2.90;;;2.70;;
2658;SDS011;1339;53.304;10.406;2022-07-23T03:50:09;3.63;;;2.80;;
2658;SDS011;1339;53.304;10.406;2022-07-23T03:52:37;2.93;;;2.63;;
2658;SDS011;1339;53.304;10.406;2022-07-23T03:55:04;2.70;;;2.50;;
2658;SDS011;1339;53.304;10.406;2022-07-23T03:57:33;4.60;;;2.90;;
2658;SDS011;1339;53.304;10.406;2022-07-23T04:00:00;3.00;;;2.70;;
2658;SDS011;1339;53.304;10.406;2022-07-23T04:02:27;3.27;;;2.67;;
2658;SDS011;1339;53.304;10.406;2022-07-23T04:04:54;4.57;;;2.77;;
2658;SDS011;1339;53.304;10.406;2022-07-23T04:07:21;3.10;;;2.80;;
2658;SDS011;1339;53.304;10.406;2022-07-23T04:09:48;2.67;;;2.20;;
2658;SDS011;1339;53.304;10.406;2022-07-23T04:12:15;3.30;;;2.70;;
2658;SDS011;1339;53.304;10.406;2022-07-23T04:14:44;3.23;;;2.30;;
2658;SDS011;1339;53.304;10.406;2022-07-23T04:17:11;5.63;;;2.50;;
2658;SDS011;1339;53.304;10.406;2022-07-23T04:19:38;2.83;;;2.50;;
2658;SDS011;1339;53.304;10.406;2022-07-23T04:22:06;2.90;;;2.50;;
2658;SDS011;1339;53.304;10.406;2022-07-23T04:24:33;2.60;;;2.40;;
2658;SDS011;1339;53.304;10.406;2022-07-23T04:27:00;3.20;;;2.57;;
2658;SDS011;1339;53.304;10.406;2022-07-23T04:29:27;5.77;;;2.80;;
2658;SDS011;1339;53.304;10.406;2022-07-23T04:31:56;3.70;;;2.87;;
2658;SDS011;1339;53.304;10.406;2022-07-23T04:34:23;4.10;;;3.00;;
2658;SDS011;1339;53.304;10.406;2022-07-23T04:36:51;3.13;;;2.70;;
2658;SDS011;1339;53.304;10.406;2022-07-23T04:39:18;2.97;;;2.20;;
2658;SDS011;1339;53.304;10.406;2022-07-23T04:41:46;3.73;;;3.03;;
2658;SDS011;1339;53.304;10.406;2022-07-23T04:44:13;8.23;;;3.10;;
2658;SDS011;1339;53.304;10.406;2022-07-23T04:46:40;3.53;;;3.23;;
2658;SDS011;1339;53.304;10.406;2022-07-23T04:49:08;6.03;;;3.20;;
2658;SDS011;1339;53.304;10.406;2022-07-23T04:51:36;4.97;;;3.03;;
2658;SDS011;1339;53.304;10.406;2022-07-23T04:54:03;3.60;;;3.30;;
2658;SDS011;1339;53.304;10.406;2022-07-23T04:56:30;3.10;;;2.83;;
2658;SDS011;1339;53.304;10.406;2022-07-23T04:58:57;2.80;;;2.60;;
2658;SDS011;1339;53.304;10.406;2022-07-23T05:01:24;5.03;;;4.00;;
2658;SDS011;1339;53.304;10.406;2022-07-23T05:03:51;5.33;;;3.10;;
2658;SDS011;1339;53.304;10.406;2022-07-23T05:06:20;3.70;;;2.80;;
2658;SDS011;1339;53.304;10.406;2022-07-23T05:08:47;5.20;;;3.33;;
2658;SDS011;1339;53.304;10.406;2022-07-23T05:11:14;5.47;;;3.07;;
2658;SDS011;1339;53.304;10.406;2022-07-23T05:13:41;3.67;;;3.10;;
2658;SDS011;1339;53.304;10.406;2022-07-23T05:16:08;3.50;;;3.20;;
2658;SDS011;1339;53.304;10.406;2022-07-23T05:18:35;5.57;;;3.70;;
2658;SDS011;1339;53.304;10.406;2022-07-23T05:21:02;3.30;;;3.10;;
2658;SDS011;1339;53.304;10.406;2022-07-23T05:23:31;4.13;;;3.80;;
2658;SDS011;1339;53.304;10.406;2022-07-23T05:25:58;3.73;;;3.17;;
2658;SDS011;1339;53.304;10.406;2022-07-23T05:28:25;4.03;;;3.73;;
2658;SDS011;1339;53.304;10.406;2022-07-23T05:30:52;2.90;;;2.70;;
2658;SDS011;1339;53.304;10.406;2022-07-23T05:33:19;3.20;;;3.00;;
2658;SDS011;1339;53.304;10.406;2022-07-23T05:35:46;4.10;;;3.37;;
2658;SDS011;1339;53.304;10.406;2022-07-23T05:38:13;4.00;;;3.70;;
2658;SDS011;1339;53.304;10.406;2022-07-23T05:40:42;3.50;;;3.20;;
2658;SDS011;1339;53.304;10.406;2022-07-23T05:43:09;4.70;;;3.77;;
2658;SDS011;1339;53.304;10.406;2022-07-23T05:45:36;4.40;;;4.00;;
2658;SDS011;1339;53.304;10.406;2022-07-23T05:48:04;3.53;;;3.23;;
2658;SDS011;1339;53.304;10.406;2022-07-23T05:50:31;4.33;;;3.30;;
2658;SDS011;1339;53.304;10.406;2022-07-23T05:52:58;8.00;;;4.43;;
2658;SDS011;1339;53.304;10.406;2022-07-23T05:55:25;6.53;;;3.93;;
2658;SDS011;1339;53.304;10.406;2022-07-23T05:57:58;4.60;;;3.60;;
2658;SDS011;1339;53.304;10.406;2022-07-23T06:00:25;8.43;;;3.20;;
2658;SDS011;1339;53.304;10.406;2022-07-23T06:02:52;4.13;;;3.07;;
2658;SDS011;1339;53.304;10.406;2022-07-23T06:05:20;4.30;;;3.80;;
2658;SDS011;1339;53.304;10.406;2022-07-23T06:07:47;5.77;;;3.87;;
2658;SDS011;1339;53.304;10.406;2022-07-23T06:10:14;3.70;;;3.50;;
2658;SDS011;1339;53.304;10.406;2022-07-23T06:12:41;4.43;;;3.87;;
2658;SDS011;1339;53.304;10.406;2022-07-23T06:15:10;4.93;;;4.53;;
2658;SDS011;1339;53.304;10.406;2022-07-23T06:17:37;7.67;;;3.60;;
2658;SDS011;1339;53.304;10.406;2022-07-23T06:20:05;5.20;;;3.80;;
2658;SDS011;1339;53.304;10.406;2022-07-23T06:22:32;3.43;;;3.07;;
2658;SDS011;1339;53.304;10.406;2022-07-23T06:24:59;6.33;;;3.50;;
2658;SDS011;1339;53.304;10.406;2022-07-23T06:27:27;5.97;;;3.60;;
2658;SDS011;1339;53.304;10.406;2022-07-23T06:29:54;5.57;;;3.70;;
2658;SDS011;1339;53.304;10.406;2022-07-23T06:32:22;4.90;;;3.27;;
2658;SDS011;1339;53.304;10.406;2022-07-23T06:34:49;2.80;;;2.53;;
2658;SDS011;1339;53.304;10.406;2022-07-23T06:37:16;3.97;;;3.47;;
2658;SDS011;1339;53.304;10.406;2022-07-23T06:39:43;4.53;;;3.27;;
2658;SDS011;1339;53.304;10.406;2022-07-23T06:42:10;3.60;;;2.93;;
2658;SDS011;1339;53.304;10.406;2022-07-23T06:44:38;5.73;;;3.17;;
2658;SDS011;1339;53.304;10.406;2022-07-23T06:47:05;5.87;;;3.50;;
2658;SDS011;1339;53.304;10.406;2022-07-23T06:49:34;4.73;;;3.17;;
2658;SDS011;1339;53.304;10.406;2022-07-23T06:52:01;4.57;;;2.90;;
2658;SDS011;1339;53.304;10.406;2022-07-23T06:54:28;4.47;;;3.50;;
2658;SDS011;1339;53.304;10.406;2022-07-23T06:56:55;3.10;;;2.80;;
2658;SDS011;1339;53.304;10.406;2022-07-23T06:59:22;3.77;;;3.10;;
2658;SDS011;1339;53.304;10.406;2022-07-23T07:01:49;2.63;;;2.43;;
2658;SDS011;1339;53.304;10.406;2022-07-23T07:04:16;3.27;;;2.97;;
2658;SDS011;1339;53.304;10.406;2022-07-23T07:06:45;3.87;;;2.70;;
2658;SDS011;1339;53.304;10.406;2022-07-23T07:09:12;2.83;;;2.50;;
2658;SDS011;1339;53.304;10.406;2022-07-23T07:11:39;4.07;;;2.40;;
2658;SDS011;1339;53.304;10.406;2022-07-23T07:14:06;3.17;;;2.30;;
2658;SDS011;1339;53.304;10.406;2022-07-23T07:16:33;3.87;;;2.27;;
2658;SDS011;1339;53.304;10.406;2022-07-23T07:19:00;2.10;;;1.90;;
2658;SDS011;1339;53.304;10.406;2022-07-23T07:21:27;3.00;;;2.17;;
2658;SDS011;1339;53.304;10.406;2022-07-23T07:23:56;2.63;;;1.80;;
2658;SDS011;1339;53.304;10.406;2022-07-23T07:26:23;1.50;;;1.40;;
2658;SDS011;1339;53.304;10.406;2022-07-23T07:28:50;2.67;;;1.77;;
2658;SDS011;1339;53.304;10.406;2022-07-23T07:31:17;3.37;;;1.60;;
2658;SDS011;1339;53.304;10.406;2022-07-23T07:33:44;3.20;;;1.93;;
2658;SDS011;1339;53.304;10.406;2022-07-23T07:36:12;6.93;;;2.10;;
2658;SDS011;1339;53.304;10.406;2022-07-23T07:38:39;3.37;;;2.60;;
2658;SDS011;1339;53.304;10.406;2022-07-23T07:41:08;2.87;;;2.03;;
2658;SDS011;1339;53.304;10.406;2022-07-23T07:43:35;2.30;;;2.10;;
2658;SDS011;1339;53.304;10.406;2022-07-23T07:46:02;1.87;;;1.67;;
2658;SDS011;1339;53.304;10.406;2022-07-23T07:48:29;3.70;;;1.70;;
2658;SDS011;1339;53.304;10.406;2022-07-23T07:50:57;3.53;;;1.63;;
2658;SDS011;1339;53.304;10.406;2022-07-23T07:53:24;3.63;;;1.63;;
2658;SDS011;1339;53.304;10.406;2022-07-23T07:55:51;1.70;;;1.60;;
2658;SDS011;1339;53.304;10.406;2022-07-23T07:58:19;3.40;;;2.07;;
2658;SDS011;1339;53.304;10.406;2022-07-23T08:00:46;3.17;;;1.50;;
2658;SDS011;1339;53.304;10.406;2022-07-23T08:03:14;2.20;;;1.53;;
2658;SDS011;1339;53.304;10.406;2022-07-23T08:05:41;2.83;;;1.93;;
2658;SDS011;1339;53.304;10.406;2022-07-23T08:08:08;1.83;;;1.33;;
2658;SDS011;1339;53.304;10.406;2022-07-23T08:10:40;2.43;;;1.37;;
2658;SDS011;1339;53.304;10.406;2022-07-23T08:13:11;2.50;;;1.30;;
2658;SDS011;1339;53.304;10.406;2022-07-23T08:15:40;2.40;;;1.33;;
2658;SDS011;1339;53.304;10.406;2022-07-23T08:18:07;2.63;;;1.20;;
2658;SDS011;1339;53.304;10.406;2022-07-23T08:20:35;1.87;;;1.40;;
2658;SDS011;1339;53.304;10.406;2022-07-23T08:23:03;2.10;;;1.60;;
2658;SDS011;1339;53.304;10.406;2022-07-23T08:25:31;3.00;;;2.30;;
2658;SDS011;1339;53.304;10.406;2022-07-23T08:27:58;4.43;;;1.40;;
2658;SDS011;1339;53.304;10.406;2022-07-23T08:30:26;6.13;;;1.80;;
2658;SDS011;1339;53.304;10.406;2022-07-23T08:32:55;1.93;;;1.50;;
2658;SDS011;1339;53.304;10.406;2022-07-23T08:35:26;1.43;;;1.30;;
2658;SDS011;1339;53.304;10.406;2022-07-23T08:37:54;2.90;;;1.83;;
2658;SDS011;1339;53.304;10.406;2022-07-23T08:40:22;2.63;;;1.97;;
2658;SDS011;1339;53.304;10.406;2022-07-23T08:42:50;1.67;;;1.50;;
2658;SDS011;1339;53.304;10.406;2022-07-23T08:45:18;2.20;;;2.10;;
2658;SDS011;1339;53.304;10.406;2022-07-23T08:47:46;2.70;;;1.43;;
2658;SDS011;1339;53.304;10.406;2022-07-23T08:50:16;1.60;;;1.50;;
2658;SDS011;1339;53.304;10.406;2022-07-23T08:52:43;2.07;;;1.70;;
2658;SDS011;1339;53.304;10.406;2022-07-23T08:55:10;2.27;;;1.93;;
2658;SDS011;1339;53.304;10.406;2022-07-23T08:57:37;2.37;;;1.50;;
2658;SDS011;1339;53.304;10.406;2022-07-23T09:00:05;2.03;;;1.53;;
2658;SDS011;1339;53.304;10.406;2022-07-23T09:02:37;3.17;;;2.10;;
2658;SDS011;1339;53.304;10.406;2022-07-23T09:05:05;4.33;;;1.67;;
2658;SDS011;1339;53.304;10.406;2022-07-23T09:07:33;2.13;;;1.80;;
2658;SDS011;1339;53.304;10.406;2022-07-23T09:10:08;2.40;;;2.07;;
2658;SDS011;1339;53.304;10.406;2022-07-23T09:12:36;6.67;;;1.93;;
2658;SDS011;1339;53.304;10.406;2022-07-23T09:15:04;2.07;;;1.87;;
2658;SDS011;1339;53.304;10.406;2022-07-23T09:17:36;2.00;;;1.60;;
2658;SDS011;1339;53.304;10.406;2022-07-23T09:20:10;3.93;;;1.90;;
2658;SDS011;1339;53.304;10.406;2022-07-23T09:22:39;1.93;;;1.83;;
2658;SDS011;1339;53.304;10.406;2022-07-23T09:25:08;2.20;;;1.43;;
2658;SDS011;1339;53.304;10.406;2022-07-23T09:27:45;2.53;;;2.33;;
2658;SDS011;1339;53.304;10.406;2022-07-23T09:30:13;2.47;;;1.50;;
2658;SDS011;1339;53.304;10.406;2022-07-23T09:32:40;2.10;;;1.30;;
2658;SDS011;1339;53.304;10.406;2022-07-23T09:35:08;1.30;;;1.20;;
2658;SDS011;1339;53.304;10.406;2022-07-23T09:37:35;4.20;;;1.30;;
2658;SDS011;1339;53.304;10.406;2022-07-23T09:40:05;2.40;;;1.63;;
2658;SDS011;1339;53.304;10.406;2022-07-23T09:42:32;1.43;;;1.17;;
2658;SDS011;1339;53.304;10.406;2022-07-23T09:44:59;2.70;;;1.10;;
2658;SDS011;1339;53.304;10.406;2022-07-23T09:47:27;1.30;;;1.20;;
2658;SDS011;1339;53.304;10.406;2022-07-23T09:49:58;1.50;;;1.40;;
2658;SDS011;1339;53.304;10.406;2022-07-23T09:52:26;5.10;;;1.30;;
2658;SDS011;1339;53.304;10.406;2022-07-23T09:54:57;1.83;;;1.37;;
2658;SDS011;1339;53.304;10.406;2022-07-23T09:57:26;1.30;;;1.20;;
2658;SDS011;1339;53.304;10.406;2022-07-23T09:59:53;1.90;;;1.10;;
2658;SDS011;1339;53.304;10.406;2022-07-23T10:02:24;1.10;;;0.83;;
2658;SDS011;1339;53.304;10.406;2022-07-23T10:04:52;1.80;;;1.40;;
2658;SDS011;1339;53.304;10.406;2022-07-23T10:07:20;1.97;;;1.00;;
2658;SDS011;1339;53.304;10.406;2022-07-23T10:09:48;2.73;;;0.90;;
2658;SDS011;1339;53.304;10.406;2022-07-23T10:12:18;1.30;;;0.97;;
2658;SDS011;1339;53.304;10.406;2022-07-23T10:15:00;2.20;;;1.27;;
2658;SDS011;1339;53.304;10.406;2022-07-23T10:17:28;1.40;;;0.80;;
2658;SDS011;1339;53.304;10.406;2022-07-23T10:19:55;0.83;;;0.80;;
2658;SDS011;1339;53.304;10.406;2022-07-23T10:22:23;2.13;;;1.10;;
2658;SDS011;1339;53.304;10.406;2022-07-23T10:25:04;21.87;;;7.40;;
2658;SDS011;1339;53.304;10.406;2022-07-23T10:27:38;4.60;;;1.70;;
2658;SDS011;1339;53.304;10.406;2022-07-23T10:30:09;14.07;;;4.50;;
2658;SDS011;1339;53.304;10.406;2022-07-23T10:32:40;6.33;;;2.57;;
2658;SDS011;1339;53.304;10.406;2022-07-23T10:35:10;9.00;;;2.50;;
2658;SDS011;1339;53.304;10.406;2022-07-23T10:37:41;43.43;;;9.40;;
2658;SDS011;1339;53.304;10.406;2022-07-23T10:40:10;2.20;;;1.07;;
2658;SDS011;1339;53.304;10.406;2022-07-23T10:42:37;1.23;;;0.90;;
2658;SDS011;1339;53.304;10.406;2022-07-23T10:45:27;1.83;;;1.10;;
2658;SDS011;1339;53.304;10.406;2022-07-23T10:47:55;1.60;;;1.10;;
2658;SDS011;1339;53.304;10.406;2022-07-23T10:50:23;2.40;;;0.90;;
2658;SDS011;1339;53.304;10.406;2022-07-23T10:53:13;1.00;;;0.90;;
2658;SDS011;1339;53.304;10.406;2022-07-23T10:55:43;1.37;;;0.90;;
2658;SDS011;1339;53.304;10.406;2022-07-23T10:58:11;1.40;;;1.00;;
2658;SDS011;1339;53.304;10.406;2022-07-23T11:00:39;1.10;;;1.00;;
2658;SDS011;1339;53.304;10.406;2022-07-23T11:03:27;1.77;;;1.00;;
2658;SDS011;1339;53.304;10.406;2022-07-23T11:05:54;2.23;;;0.70;;
2658;SDS011;1339;53.304;10.406;2022-07-23T11:08:21;1.77;;;0.80;;
2658;SDS011;1339;53.304;10.406;2022-07-23T11:10:50;3.03;;;1.03;;
2658;SDS011;1339;53.304;10.406;2022-07-23T11:13:36;2.70;;;0.97;;
2658;SDS011;1339;53.304;10.406;2022-07-23T11:16:06;3.70;;;1.10;;
2658;SDS011;1339;53.304;10.406;2022-07-23T11:21:51;3.03;;;1.13;;
2658;SDS011;1339;53.304;10.406;2022-07-23T11:24:21;1.30;;;0.80;;
2658;SDS011;1339;53.304;10.406;2022-07-23T11:26:59;1.20;;;0.80;;
2658;SDS011;1339;53.304;10.406;2022-07-23T11:29:39;3.37;;;1.10;;
2658;SDS011;1339;53.304;10.406;2022-07-23T11:32:11;0.90;;;0.80;;
2658;SDS011;1339;53.304;10.406;2022-07-23T11:34:45;1.20;;;0.80;;
2658;SDS011;1339;53.304;10.406;2022-07-23T11:39:54;1.63;;;0.83;;
2658;SDS011;1339;53.304;10.406;2022-07-23T11:42:22;1.00;;;0.90;;
2658;SDS011;1339;53.304;10.406;2022-07-23T11:44:49;1.63;;;0.80;;
2658;SDS011;1339;53.304;10.406;2022-07-23T11:47:21;1.97;;;0.97;;
2658;SDS011;1339;53.304;10.406;2022-07-23T11:49:51;1.20;;;0.87;;
2658;SDS011;1339;53.304;10.406;2022-07-23T11:52:19;0.90;;;0.70;;
2658;SDS011;1339;53.304;10.406;2022-07-23T11:54:47;1.07;;;0.70;;
2658;SDS011;1339;53.304;10.406;2022-07-23T11:57:14;1.03;;;0.67;;
2658;SDS011;1339;53.304;10.406;2022-07-23T11:59:41;0.90;;;0.70;;
2658;SDS011;1339;53.304;10.406;2022-07-23T12:02:09;0.83;;;0.60;;
2658;SDS011;1339;53.304;10.406;2022-07-23T12:04:40;0.90;;;0.80;;
2658;SDS011;1339;53.304;10.406;2022-07-23T12:07:22;1.43;;;0.70;;
2658;SDS011;1339;53.304;10.406;2022-07-23T12:09:49;0.90;;;0.70;;
2658;SDS011;1339;53.304;10.406;2022-07-23T12:12:16;1.77;;;0.80;;
2658;SDS011;1339;53.304;10.406;2022-07-23T12:14:47;0.80;;;0.60;;
2658;SDS011;1339;53.304;10.406;2022-07-23T12:17:14;1.10;;;0.80;;
2658;SDS011;1339;53.304;10.406;2022-07-23T12:19:43;0.90;;;0.70;;
2658;SDS011;1339;53.304;10.406;2022-07-23T12:22:10;1.20;;;0.80;;
2658;SDS011;1339;53.304;10.406;2022-07-23T12:24:58;0.83;;;0.63;;
2658;SDS011;1339;53.304;10.406;2022-07-23T12:27:26;0.90;;;0.60;;
2658;SDS011;1339;53.304;10.406;2022-07-23T12:29:53;1.10;;;0.83;;
2658;SDS011;1339;53.304;10.406;2022-07-23T12:32:21;1.20;;;0.80;;
2658;SDS011;1339;53.304;10.406;2022-07-23T12:34:51;1.00;;;0.60;;
2658;SDS011;1339;53.304;10.406;2022-07-23T12:37:29;0.87;;;0.60;;
2658;SDS011;1339;53.304;10.406;2022-07-23T12:39:56;1.73;;;0.60;;
2658;SDS011;1339;53.304;10.406;2022-07-23T12:42:25;0.93;;;0.67;;
2658;SDS011;1339;53.304;10.406;2022-07-23T12:45:05;1.00;;;0.80;;
2658;SDS011;1339;53.304;10.406;2022-07-23T12:53:12;1.37;;;0.70;;
2658;SDS011;1339;53.304;10.406;2022-07-23T12:55:40;1.13;;;0.70;;
2658;SDS011;1339;53.304;10.406;2022-07-23T12:58:08;0.90;;;0.70;;
2658;SDS011;1339;53.304;10.406;2022-07-23T13:00:50;1.20;;;0.63;;
2658;SDS011;1339;53.304;10.406;2022-07-23T13:03:28;1.10;;;0.80;;
2658;SDS011;1339;53.304;10.406;2022-07-23T13:05:55;1.17;;;0.80;;
2658;SDS011;1339;53.304;10.406;2022-07-23T13:08:24;2.63;;;0.90;;
2658;SDS011;1339;53.304;10.406;2022-07-23T13:10:51;4.80;;;0.73;;
2658;SDS011;1339;53.304;10.406;2022-07-23T13:13:20;0.90;;;0.70;;
2658;SDS011;1339;53.304;10.406;2022-07-23T13:15:47;1.10;;;0.90;;
2658;SDS011;1339;53.304;10.406;2022-07-23T13:18:15;1.53;;;0.80;;
2658;SDS011;1339;53.304;10.406;2022-07-23T13:20:45;1.17;;;0.77;;
2658;SDS011;1339;53.304;10.406;2022-07-23T13:23:13;1.40;;;0.87;;
2658;SDS011;1339;53.304;10.406;2022-07-23T13:25:41;1.47;;;0.93;;
2658;SDS011;1339;53.304;10.406;2022-07-23T13:28:09;1.23;;;0.60;;
2658;SDS011;1339;53.304;10.406;2022-07-23T13:30:36;2.40;;;1.10;;
2658;SDS011;1339;53.304;10.406;2022-07-23T13:33:03;1.00;;;0.80;;
2658;SDS011;1339;53.304;10.406;2022-07-23T13:35:31;1.43;;;0.80;;
2658;SDS011;1339;53.304;10.406;2022-07-23T13:37:58;2.20;;;0.90;;
2658;SDS011;1339;53.304;10.406;2022-07-23T13:40:25;2.90;;;0.70;;
2658;SDS011;1339;53.304;10.406;2022-07-23T13:42:54;1.07;;;0.80;;
2658;SDS011;1339;53.304;10.406;2022-07-23T13:45:21;2.40;;;0.90;;
2658;SDS011;1339;53.304;10.406;2022-07-23T13:47:48;1.13;;;0.90;;
2658;SDS011;1339;53.304;10.406;2022-07-23T13:50:15;1.67;;;0.90;;
2658;SDS011;1339;53.304;10.406;2022-07-23T13:52:42;2.10;;;0.90;;
2658;SDS011;1339;53.304;10.406;2022-07-23T13:55:09;1.00;;;0.80;;
2658;SDS011;1339;53.304;10.406;2022-07-23T13:57:37;1.23;;;0.73;;
2658;SDS011;1339;53.304;10.406;2022-07-23T14:00:06;3.60;;;1.30;;
2658;SDS011;1339;53.304;10.406;2022-07-23T14:02:35;0.80;;;0.60;;
2658;SDS011;1339;53.304;10.406;2022-07-23T14:05:03;1.63;;;0.90;;
2658;SDS011;1339;53.304;10.406;2022-07-23T14:07:30;1.90;;;1.73;;
2658;SDS011;1339;53.304;10.406;2022-07-23T14:09:57;1.83;;;1.13;;
2658;SDS011;1339;53.304;10.406;2022-07-23T14:12:25;1.90;;;1.23;;
2658;SDS011;1339;53.304;10.406;2022-07-23T14:14:52;2.17;;;1.20;;
2658;SDS011;1339;53.304;10.406;2022-07-23T14:17:20;2.10;;;1.37;;
2658;SDS011;1339;53.304;10.406;2022-07-23T14:19:48;1.53;;;0.93;;
2658;SDS011;1339;53.304;10.406;2022-07-23T14:22:15;2.40;;;1.40;;
2658;SDS011;1339;53.304;10.406;2022-07-23T14:24:42;2.03;;;1.20;;
2658;SDS011;1339;53.304;10.406;2022-07-23T14:27:09;1.73;;;1.00;;
2658;SDS011;1339;53.304;10.406;2022-07-23T14:29:36;2.60;;;1.00;;
2658;SDS011;1339;53.304;10.406;2022-07-23T14:32:03;2.43;;;2.20;;
2658;SDS011;1339;53.304;10.406;2022-07-23T14:34:33;1.47;;;0.90;;
2658;SDS011;1339;53.304;10.406;2022-07-23T14:37:00;2.13;;;1.03;;
2658;SDS011;1339;53.304;10.406;2022-07-23T14:39:27;3.77;;;1.70;;
2658;SDS011;1339;53.304;10.406;2022-07-23T14:41:54;2.27;;;1.23;;
2658;SDS011;1339;53.304;10.406;2022-07-23T14:44:21;1.50;;;1.00;;
2658;SDS011;1339;53.304;10.406;2022-07-23T14:46:48;2.10;;;1.00;;
2658;SDS011;1339;53.304;10.406;2022-07-23T14:49:16;2.63;;;1.03;;
2658;SDS011;1339;53.304;10.406;2022-07-23T14:51:44;1.00;;;0.80;;
2658;SDS011;1339;53.304;10.406;2022-07-23T14:54:11;2.60;;;1.03;;
2658;SDS011;1339;53.304;10.406;2022-07-23T14:56:39;1.00;;;0.90;;
2658;SDS011;1339;53.304;10.406;2022-07-23T14:59:06;1.40;;;1.10;;
2658;SDS011;1339;53.304;10.406;2022-07-23T15:01:34;0.93;;;0.83;;
2658;SDS011;1339;53.304;10.406;2022-07-23T15:04:01;5.10;;;1.17;;
2658;SDS011;1339;53.304;10.406;2022-07-23T15:06:28;1.10;;;1.00;;
2658;SDS011;1339;53.304;10.406;2022-07-23T15:08:57;2.03;;;1.07;;
2658;SDS011;1339;53.304;10.406;2022-07-23T15:11:25;2.73;;;1.13;;
2658;SDS011;1339;53.304;10.406;2022-07-23T15:13:54;4.53;;;1.20;;
2658;SDS011;1339;53.304;10.406;2022-07-23T15:16:21;1.17;;;1.00;;
2658;SDS011;1339;53.304;10.406;2022-07-23T15:18:48;4.00;;;1.13;;